createdAt,value
2023-04-19T00:03:15.161Z,5.15
2023-04-19T00:08:17.452Z,5.00
2023-04-19T00:13:19.735Z,4.68
2023-04-19T00:18:22.062Z,4.75
2023-04-19T00:23:24.195Z,6.43
2023-04-19T00:28:26.570Z,5.82
2023-04-19T00:33:28.804Z,4.65
2023-04-19T00:38:31.173Z,5.32
2023-04-19T00:43:33.334Z,5.63
2023-04-19T00:48:38.531Z,6.30
2023-04-19T00:53:41.573Z,4.28
2023-04-19T00:58:43.871Z,4.05
2023-04-19T01:03:47.256Z,4.28
2023-04-19T01:08:49.824Z,5.00
2023-04-19T01:13:52.287Z,5.13
2023-04-19T01:18:54.634Z,4.25
2023-04-19T01:23:56.770Z,4.75
2023-04-19T01:28:58.939Z,5.15
2023-04-19T01:34:01.121Z,5.60
2023-04-19T01:39:03.335Z,6.00
2023-04-19T01:44:05.486Z,5.00
2023-04-19T01:49:08.175Z,5.80
2023-04-19T01:54:10.265Z,5.95
2023-04-19T01:59:12.486Z,5.97
2023-04-19T02:04:14.894Z,5.57
2023-04-19T02:09:17.291Z,4.75
2023-04-19T02:14:19.537Z,5.38
2023-04-19T02:19:21.637Z,6.13
2023-04-19T02:24:25.023Z,5.50
2023-04-19T02:29:27.353Z,5.88
2023-04-19T02:34:29.484Z,6.90
2023-04-19T02:39:31.817Z,6.85
2023-04-19T02:44:33.980Z,5.00
2023-04-19T02:49:38.321Z,5.88
2023-04-19T02:54:40.489Z,5.28
2023-04-19T02:59:42.619Z,5.40
2023-04-19T03:04:44.771Z,6.00
2023-04-19T03:09:46.917Z,4.93
2023-04-19T03:14:49.871Z,5.50
2023-04-19T03:19:52.885Z,6.50
2023-04-19T03:24:54.952Z,6.57
2023-04-19T03:29:57.731Z,6.97
2023-04-19T03:34:59.818Z,6.70
2023-04-19T03:40:02.162Z,6.40
2023-04-19T03:45:04.757Z,5.15
2023-04-19T03:50:07.317Z,5.13
2023-04-19T03:55:10.366Z,5.75
2023-04-19T04:00:13.600Z,5.47
2023-04-19T04:05:16.259Z,5.68
2023-04-19T04:10:18.494Z,5.38
2023-04-19T04:15:20.732Z,5.68
2023-04-19T04:20:22.940Z,4.57
2023-04-19T04:25:26.332Z,5.20
2023-04-19T04:30:29.022Z,6.55
2023-04-19T04:35:31.237Z,5.78
2023-04-19T04:40:33.942Z,5.75
2023-04-19T04:45:36.171Z,6.20
2023-04-19T04:50:38.448Z,5.80
2023-04-19T04:55:40.593Z,6.13
2023-04-19T05:00:42.795Z,6.95
2023-04-19T05:05:45.353Z,5.72
2023-04-19T05:10:47.790Z,7.03
2023-04-19T05:15:49.971Z,6.25
2023-04-19T05:20:52.251Z,6.10
2023-04-19T05:25:54.420Z,4.18
2023-04-19T06:52:31.563Z,2.92
2023-04-19T06:57:33.910Z,2.50
2023-04-19T07:02:36.449Z,2.03
2023-04-19T07:07:38.818Z,2.15
2023-04-19T07:12:41.053Z,2.00
2023-04-19T07:17:43.254Z,1.80
2023-04-19T07:22:45.436Z,2.10
2023-04-19T07:27:47.646Z,1.90
2023-04-19T07:32:52.118Z,2.53
2023-04-19T07:37:54.468Z,1.90
2023-04-19T07:42:57.212Z,2.03
2023-04-19T07:47:59.458Z,2.30
2023-04-19T07:53:01.679Z,1.70
2023-04-19T07:58:07.491Z,1.75
2023-04-19T08:03:09.991Z,1.80
2023-04-19T08:08:12.930Z,1.75
2023-04-19T08:13:15.448Z,1.98
2023-04-19T08:18:17.649Z,2.78
2023-04-19T08:23:25.771Z,2.20
2023-04-19T08:28:30.092Z,2.33
2023-04-19T08:33:32.265Z,2.03
2023-04-19T08:38:34.557Z,1.80
2023-04-19T08:43:39.879Z,1.48
2023-04-19T08:48:45.524Z,1.67
2023-04-19T08:53:50.122Z,1.92
2023-04-19T09:04:10.439Z,1.73
2023-04-19T09:14:30.067Z,1.42
2023-04-19T09:19:47.099Z,1.60
2023-04-19T09:29:58.802Z,1.40
2023-04-19T09:35:01.295Z,1.92
2023-04-19T09:40:22.952Z,1.70
2023-04-19T09:50:31.882Z,1.80
2023-04-19T09:55:48.850Z,1.60
2023-04-19T10:01:13.511Z,2.05
2023-04-19T10:11:27.846Z,1.80
2023-04-19T10:16:31.192Z,1.58
2023-04-19T10:21:34.412Z,2.17
2023-04-19T10:27:14.151Z,2.38
2023-04-19T10:32:16.672Z,2.85
2023-04-19T10:37:23.656Z,2.40
2023-04-19T10:42:25.822Z,2.10
2023-04-19T10:47:46.373Z,2.50
2023-04-19T10:52:48.527Z,2.75
2023-04-19T10:58:04.389Z,2.25
2023-04-19T11:03:44.097Z,2.70
2023-04-19T11:08:47.522Z,1.80
2023-04-19T11:13:49.773Z,2.10
2023-04-19T11:18:52.131Z,1.73
2023-04-19T11:24:11.044Z,2.00
2023-04-19T11:29:13.806Z,1.70
2023-04-19T11:34:16.296Z,1.42
2023-04-19T11:39:20.090Z,2.30
2023-04-19T11:44:22.265Z,2.30
2023-04-19T11:49:33.092Z,2.00
2023-04-19T11:54:35.342Z,2.17
2023-04-19T11:59:37.562Z,1.70
2023-04-19T12:04:40.472Z,1.92
2023-04-19T12:09:42.734Z,2.25
2023-04-19T12:14:52.877Z,2.63
2023-04-19T12:19:55.206Z,2.97
2023-04-19T12:24:58.081Z,3.38
2023-04-19T12:30:00.280Z,3.03
2023-04-19T12:35:02.499Z,3.80
2023-04-19T12:40:05.670Z,3.88
2023-04-19T12:45:08.461Z,4.20
2023-04-19T12:50:11.109Z,4.35
2023-04-19T12:55:13.530Z,3.55
2023-04-19T13:00:15.979Z,3.70
2023-04-19T13:05:19.216Z,3.70
2023-04-19T13:10:21.588Z,3.50
2023-04-19T13:15:23.801Z,3.30
2023-04-19T13:20:26.073Z,3.17
2023-04-19T13:25:28.493Z,3.10
2023-04-19T13:30:31.070Z,2.70
2023-04-19T13:35:33.316Z,2.67
2023-04-19T13:40:35.616Z,2.45
2023-04-19T13:45:37.958Z,3.03
2023-04-19T13:50:40.372Z,3.20
2023-04-19T13:55:42.671Z,3.75
2023-04-19T14:00:45.170Z,3.08
2023-04-19T14:05:47.481Z,3.50
2023-04-19T14:10:51.440Z,3.90
2023-04-19T14:15:53.803Z,3.58
2023-04-19T14:20:56.328Z,3.53
2023-04-19T14:25:58.507Z,2.80
2023-04-19T14:31:02.968Z,2.90
2023-04-19T14:36:05.250Z,3.15
2023-04-19T14:41:07.810Z,2.70
2023-04-19T14:46:10.142Z,3.00
2023-04-19T14:51:12.409Z,3.30
2023-04-19T14:56:14.598Z,3.28
2023-04-19T15:01:16.804Z,3.25
2023-04-19T15:06:19.059Z,3.63
2023-04-19T15:11:21.458Z,3.28
2023-04-19T15:16:23.657Z,3.08
2023-04-19T15:21:26.180Z,2.83
2023-04-19T15:26:29.300Z,3.40
2023-04-19T15:31:32.767Z,3.17
2023-04-19T15:36:35.030Z,3.10
2023-04-19T15:41:37.286Z,2.58
2023-04-19T15:46:39.562Z,2.45
2023-04-19T15:51:41.825Z,2.35
2023-04-19T15:56:44.145Z,1.77
2023-04-19T16:01:46.371Z,1.48
2023-04-19T16:06:48.650Z,1.60
2023-04-19T16:11:51.081Z,1.55
2023-04-19T16:16:54.164Z,1.35
2023-04-19T16:21:57.213Z,1.10
2023-04-19T16:26:59.440Z,1.05
2023-04-19T16:32:01.856Z,1.23
2023-04-19T16:37:04.189Z,0.98
2023-04-19T16:42:06.530Z,1.40
2023-04-19T16:47:08.802Z,1.30
2023-04-19T16:52:11.058Z,1.20
2023-04-19T16:57:13.284Z,1.60
2023-04-19T17:02:15.879Z,1.35
2023-04-19T17:07:18.253Z,1.00
2023-04-19T17:12:20.525Z,2.28
2023-04-19T17:17:22.780Z,1.80
2023-04-19T17:22:25.032Z,2.42
2023-04-19T17:27:27.320Z,2.80
2023-04-19T17:32:29.556Z,4.35
2023-04-19T17:37:31.974Z,5.10
2023-04-19T17:42:34.133Z,3.85
2023-04-19T17:47:36.379Z,3.20
2023-04-19T17:52:39.642Z,2.42
2023-04-19T17:57:41.929Z,1.83
2023-04-19T18:02:44.224Z,2.50
2023-04-19T18:07:47.047Z,2.22
2023-04-19T18:12:49.310Z,2.33
2023-04-19T18:17:51.572Z,2.53
2023-04-19T18:22:54.078Z,2.63
2023-04-19T18:27:56.389Z,2.10
2023-04-19T18:32:59.284Z,3.30
2023-04-19T18:38:02.078Z,7.63
2023-04-19T18:43:04.320Z,8.07
2023-04-19T18:48:06.719Z,5.60
2023-04-19T18:53:08.892Z,4.82
2023-04-19T18:58:12.330Z,4.15
2023-04-19T19:03:33.878Z,4.35
2023-04-19T19:08:36.869Z,7.30
2023-04-19T19:13:39.847Z,6.10
2023-04-19T19:18:42.054Z,5.53
2023-04-19T19:23:44.280Z,5.82
2023-04-19T19:28:47.365Z,5.63
2023-04-19T19:33:53.541Z,4.03
2023-04-19T19:39:00.463Z,5.32
2023-04-19T19:44:03.105Z,8.30
2023-04-19T19:49:06.548Z,8.07
2023-04-19T19:54:10.067Z,6.90
2023-04-19T19:59:14.076Z,5.13
2023-04-19T20:04:16.662Z,3.90
2023-04-19T20:09:19.236Z,2.80
2023-04-19T20:14:25.467Z,2.30
2023-04-19T20:19:27.945Z,1.95
2023-04-19T20:24:31.220Z,2.20
2023-04-19T20:29:33.472Z,2.13
2023-04-19T20:34:35.776Z,1.80
2023-04-19T20:39:38.129Z,2.70
2023-04-19T20:44:40.750Z,3.10
2023-04-19T20:49:42.923Z,3.30
2023-04-19T20:54:45.184Z,4.97
2023-04-19T20:59:49.370Z,4.72
2023-04-19T21:04:51.655Z,4.30
2023-04-19T21:09:53.849Z,4.05
2023-04-19T21:14:56.105Z,3.92
2023-04-19T21:19:58.244Z,3.40
2023-04-19T21:25:00.443Z,3.95
2023-04-19T21:30:06.549Z,3.88
2023-04-19T21:35:09.137Z,5.15
2023-04-19T21:40:11.742Z,4.63
2023-04-19T21:45:13.934Z,5.20
2023-04-19T21:50:16.264Z,4.93
2023-04-19T21:55:19.033Z,5.20
2023-04-19T22:00:21.221Z,5.43
2023-04-19T22:05:23.471Z,5.97
2023-04-19T22:10:26.250Z,6.00
2023-04-19T22:15:29.028Z,5.80
2023-04-19T22:20:32.626Z,5.72
2023-04-19T22:25:34.979Z,5.53
2023-04-19T22:30:37.935Z,5.53
2023-04-19T22:35:40.145Z,6.13
2023-04-19T22:40:42.646Z,5.90
2023-04-19T22:45:48.380Z,5.55
2023-04-19T22:50:52.933Z,5.68
2023-04-19T22:55:55.220Z,5.68
2023-04-19T23:00:57.510Z,5.72
2023-04-19T23:06:00.963Z,5.63
2023-04-19T23:11:05.346Z,6.10
2023-04-19T23:16:11.401Z,6.20
2023-04-19T23:21:13.650Z,4.75
2023-04-19T23:26:16.035Z,5.15
2023-04-19T23:31:18.363Z,4.45
2023-04-19T23:36:20.830Z,5.20
2023-04-19T23:41:23.072Z,4.95
2023-04-19T23:46:25.448Z,6.40
2023-04-19T23:51:28.324Z,4.40
2023-04-19T23:56:30.912Z,4.43
